createdAt,value
2018-02-20T00:01:56.845Z,29.43
2018-02-20T00:04:23.044Z,36.77
2018-02-20T00:06:49.360Z,35.93
2018-02-20T00:09:16.502Z,43.20
2018-02-20T00:11:43.434Z,37.13
2018-02-20T00:14:09.653Z,32.40
2018-02-20T00:16:36.582Z,34.33
2018-02-20T00:19:02.912Z,34.00
2018-02-20T00:21:29.151Z,42.57
2018-02-20T00:23:55.433Z,37.33
2018-02-20T00:26:21.737Z,32.57
2018-02-20T00:28:48.120Z,40.37
2018-02-20T00:31:15.270Z,34.90
2018-02-20T00:33:41.561Z,34.30
2018-02-20T00:36:07.818Z,26.10
2018-02-20T00:38:34.044Z,32.67
2018-02-20T00:41:00.334Z,33.73
2018-02-20T00:43:26.588Z,36.50
2018-02-20T00:45:52.983Z,39.70
2018-02-20T00:48:19.979Z,33.30
2018-02-20T00:50:46.308Z,33.57
2018-02-20T00:53:12.623Z,31.77
2018-02-20T00:55:38.856Z,36.70
2018-02-20T00:58:05.104Z,30.90
2018-02-20T01:00:31.387Z,33.13
2018-02-20T01:02:57.620Z,33.53
2018-02-20T01:05:23.839Z,39.33
2018-02-20T01:07:50.195Z,33.43
2018-02-20T01:10:16.461Z,32.47
2018-02-20T01:12:43.719Z,35.67
2018-02-20T01:15:10.774Z,33.00
2018-02-20T01:17:37.327Z,34.23
2018-02-20T01:20:03.646Z,35.67
2018-02-20T01:22:29.983Z,31.63
2018-02-20T01:24:56.348Z,34.83
2018-02-20T01:27:22.632Z,33.37
2018-02-20T01:29:48.897Z,35.70
2018-02-20T01:32:15.204Z,30.77
2018-02-20T01:34:41.521Z,32.73
2018-02-20T01:37:08.001Z,35.83
2018-02-20T01:39:34.266Z,34.43
2018-02-20T01:42:00.507Z,35.10
2018-02-20T01:44:26.724Z,40.07
2018-02-20T01:46:53.142Z,34.23
2018-02-20T01:49:20.106Z,33.37
2018-02-20T01:51:46.583Z,35.43
2018-02-20T01:54:12.853Z,39.43
2018-02-20T01:56:39.068Z,36.07
2018-02-20T01:59:06.089Z,37.57
2018-02-20T02:01:32.371Z,34.87
2018-02-20T02:03:58.868Z,37.10
2018-02-20T02:06:25.104Z,35.83
2018-02-20T02:08:52.623Z,37.47
2018-02-20T02:11:18.894Z,39.53
2018-02-20T02:13:45.961Z,29.20
2018-02-20T02:16:12.258Z,37.73
2018-02-20T02:18:39.271Z,38.70
2018-02-20T02:21:05.598Z,32.43
2018-02-20T02:23:32.165Z,42.80
2018-02-20T02:25:59.284Z,36.60
2018-02-20T02:28:25.532Z,37.73
2018-02-20T02:30:52.690Z,40.90
2018-02-20T02:33:18.904Z,38.43
2018-02-20T02:35:45.942Z,40.93
2018-02-20T02:38:12.253Z,34.60
2018-02-20T02:40:38.607Z,33.63
2018-02-20T02:43:05.607Z,36.50
2018-02-20T02:45:32.071Z,35.93
2018-02-20T02:47:58.295Z,31.10
2018-02-20T02:50:24.540Z,37.30
2018-02-20T02:52:51.574Z,37.87
2018-02-20T02:55:18.506Z,39.53
2018-02-20T02:57:44.683Z,34.47
2018-02-20T03:00:10.905Z,33.80
2018-02-20T03:02:37.148Z,31.80
2018-02-20T03:05:03.414Z,35.83
2018-02-20T03:07:29.648Z,35.83
2018-02-20T03:09:56.122Z,32.30
2018-02-20T03:12:22.451Z,38.70
2018-02-20T03:14:48.628Z,33.87
2018-02-20T03:17:16.331Z,35.50
2018-02-20T03:19:42.630Z,33.67
2018-02-20T03:22:09.598Z,33.80
2018-02-20T03:24:36.713Z,31.73
2018-02-20T03:27:04.466Z,31.47
2018-02-20T03:29:30.799Z,37.70
2018-02-20T03:31:57.023Z,33.57
2018-02-20T03:34:23.559Z,38.10
2018-02-20T03:36:50.600Z,35.73
2018-02-20T03:39:16.882Z,38.90
2018-02-20T03:41:43.200Z,37.83
2018-02-20T03:44:10.240Z,36.93
2018-02-20T03:46:37.229Z,32.87
2018-02-20T03:49:03.440Z,38.97
2018-02-20T03:51:30.004Z,39.10
2018-02-20T03:53:56.336Z,36.77
2018-02-20T03:56:22.572Z,36.57
2018-02-20T03:58:48.852Z,36.93
2018-02-20T04:01:15.070Z,35.50
2018-02-20T04:03:41.444Z,40.90
2018-02-20T04:06:07.809Z,40.77
2018-02-20T04:08:34.826Z,38.47
2018-02-20T04:11:01.127Z,45.97
2018-02-20T04:13:27.360Z,32.03
2018-02-20T04:15:53.681Z,41.50
2018-02-20T04:18:20.033Z,34.33
2018-02-20T04:20:46.427Z,41.60
2018-02-20T04:23:12.792Z,36.03
2018-02-20T04:25:39.013Z,32.77
2018-02-20T04:28:05.317Z,38.93
2018-02-20T04:30:31.671Z,34.33
2018-02-20T04:32:58.052Z,33.43
2018-02-20T04:35:24.334Z,35.03
2018-02-20T04:37:50.698Z,37.90
2018-02-20T04:40:17.743Z,38.57
2018-02-20T04:42:44.776Z,36.53
2018-02-20T04:45:11.802Z,43.67
2018-02-20T04:47:38.007Z,35.73
2018-02-20T04:50:04.424Z,34.73
2018-02-20T04:52:30.758Z,36.40
2018-02-20T04:54:57.030Z,40.73
2018-02-20T04:57:24.337Z,32.73
2018-02-20T04:59:50.805Z,35.37
2018-02-20T05:02:17.209Z,34.63
2018-02-20T05:04:43.528Z,37.07
2018-02-20T05:07:10.200Z,29.03
2018-02-20T05:09:37.138Z,36.07
2018-02-20T05:12:03.428Z,38.37
2018-02-20T05:14:29.755Z,42.50
2018-02-20T05:16:55.963Z,41.20
2018-02-20T05:19:22.356Z,33.23
2018-02-20T05:21:48.748Z,36.37
2018-02-20T05:24:14.981Z,37.37
2018-02-20T05:26:41.306Z,34.23
2018-02-20T05:29:07.872Z,37.03
2018-02-20T05:31:34.050Z,37.37
2018-02-20T05:34:00.472Z,37.03
2018-02-20T05:36:26.731Z,41.20
2018-02-20T05:38:53.038Z,38.17
2018-02-20T05:41:19.507Z,42.90
2018-02-20T05:43:45.684Z,44.43
2018-02-20T05:46:11.893Z,40.03
2018-02-20T05:48:38.900Z,42.80
2018-02-20T05:51:05.229Z,39.00
2018-02-20T05:53:31.611Z,45.00
2018-02-20T05:55:58.671Z,36.30
2018-02-20T05:58:24.977Z,43.60
2018-02-20T06:00:52.103Z,35.57
2018-02-20T06:03:19.232Z,45.13
2018-02-20T06:05:45.472Z,35.47
2018-02-20T06:08:11.884Z,51.47
2018-02-20T06:10:38.124Z,40.23
2018-02-20T06:13:04.446Z,38.63
2018-02-20T06:15:30.837Z,41.87
2018-02-20T06:17:57.267Z,45.30
2018-02-20T06:20:23.679Z,50.50
2018-02-20T06:22:50.053Z,45.70
2018-02-20T06:25:16.521Z,42.17
2018-02-20T06:27:43.459Z,45.00
2018-02-20T06:30:09.718Z,43.20
2018-02-20T06:32:36.688Z,46.57
2018-02-20T06:35:03.250Z,43.37
2018-02-20T06:37:29.624Z,42.13
2018-02-20T06:39:56.831Z,40.37
2018-02-20T06:42:23.397Z,42.53
2018-02-20T06:44:50.453Z,48.73
2018-02-20T06:47:17.539Z,43.57
2018-02-20T06:49:44.023Z,53.47
2018-02-20T06:52:11.018Z,54.93
2018-02-20T06:54:37.196Z,40.93
2018-02-20T06:57:04.264Z,43.97
2018-02-20T06:59:30.465Z,48.07
2018-02-20T07:01:57.421Z,45.07
2018-02-20T07:04:23.816Z,48.63
2018-02-20T07:06:50.114Z,45.67
2018-02-20T07:09:16.378Z,46.70
2018-02-20T07:11:43.378Z,46.47
2018-02-20T07:14:09.603Z,44.60
2018-02-20T07:16:36.004Z,43.40
2018-02-20T07:19:02.959Z,45.57
2018-02-20T07:21:29.289Z,57.10
2018-02-20T07:23:55.556Z,45.57
2018-02-20T07:26:21.787Z,47.00
2018-02-20T07:28:48.150Z,50.60
2018-02-20T07:31:15.143Z,56.07
2018-02-20T07:33:41.509Z,60.70
2018-02-20T07:36:07.814Z,52.77
2018-02-20T07:38:34.190Z,52.00
2018-02-20T07:41:00.413Z,50.50
2018-02-20T07:43:27.385Z,51.00
2018-02-20T07:45:53.773Z,52.50
2018-02-20T07:48:20.798Z,51.33
2018-02-20T07:50:47.138Z,52.37
2018-02-20T07:53:14.124Z,48.60
2018-02-20T07:55:40.379Z,62.83
2018-02-20T07:58:06.625Z,50.73
2018-02-20T08:00:32.912Z,52.83
2018-02-20T08:02:59.176Z,63.20
2018-02-20T08:05:25.467Z,58.90
2018-02-20T08:07:51.830Z,52.63
2018-02-20T08:10:19.797Z,55.10
2018-02-20T08:12:46.046Z,51.83
2018-02-20T08:15:13.381Z,55.17
2018-02-20T08:17:39.643Z,58.27
2018-02-20T08:20:06.606Z,67.70
2018-02-20T08:22:33.079Z,62.97
2018-02-20T08:24:59.309Z,58.03
2018-02-20T08:27:26.355Z,62.70
2018-02-20T08:29:52.625Z,64.80
2018-02-20T08:32:19.782Z,68.87
2018-02-20T08:34:45.972Z,70.07
2018-02-20T08:37:13.764Z,68.20
2018-02-20T08:39:40.986Z,67.87
2018-02-20T08:42:07.425Z,71.57
2018-02-20T08:44:34.656Z,73.70
2018-02-20T08:47:01.040Z,65.60
2018-02-20T08:52:20.359Z,80.77
2018-02-20T08:54:46.590Z,82.13
2018-02-20T08:57:13.341Z,79.30
2018-02-20T08:59:40.246Z,73.00
2018-02-20T09:02:06.597Z,77.87
2018-02-20T09:04:32.897Z,75.80
2018-02-20T09:06:59.147Z,85.70
2018-02-20T09:09:25.493Z,74.87
2018-02-20T09:11:51.923Z,76.70
2018-02-20T09:14:18.214Z,76.50
2018-02-20T09:16:44.439Z,77.73
2018-02-20T09:19:10.662Z,80.57
2018-02-20T09:21:36.862Z,74.67
2018-02-20T09:24:03.814Z,75.70
2018-02-20T09:26:30.031Z,91.43
2018-02-20T09:28:56.927Z,76.93
2018-02-20T09:31:23.342Z,79.13
2018-02-20T09:33:49.563Z,81.47
2018-02-20T09:36:15.767Z,78.67
2018-02-20T09:38:42.004Z,80.57
2018-02-20T09:41:08.620Z,80.07
2018-02-20T09:43:35.017Z,76.73
2018-02-20T09:46:01.496Z,87.57
2018-02-20T09:48:27.709Z,77.17
2018-02-20T09:50:54.045Z,74.40
2018-02-20T09:53:20.428Z,79.07
2018-02-20T09:55:46.915Z,80.50
2018-02-20T09:58:13.368Z,72.17
2018-02-20T10:00:39.988Z,74.63
2018-02-20T10:03:06.407Z,75.43
2018-02-20T10:05:32.653Z,73.60
2018-02-20T10:07:58.918Z,78.57
2018-02-20T10:10:28.613Z,83.03
2018-02-20T10:12:54.843Z,101.07
2018-02-20T10:15:21.208Z,81.27
2018-02-20T10:17:48.263Z,74.60
2018-02-20T10:20:14.538Z,88.60
2018-02-20T10:22:40.778Z,85.93
2018-02-20T10:25:07.022Z,89.33
2018-02-20T10:27:33.361Z,91.87
2018-02-20T10:30:00.583Z,86.60
2018-02-20T10:32:27.033Z,81.70
2018-02-20T10:34:54.021Z,84.37
2018-02-20T10:37:20.245Z,96.80
2018-02-20T10:39:47.264Z,89.97
2018-02-20T10:42:14.637Z,82.73
2018-02-20T10:44:40.963Z,105.03
2018-02-20T10:47:07.350Z,81.57
2018-02-20T10:49:33.674Z,99.63
2018-02-20T10:52:00.257Z,105.57
2018-02-20T10:54:26.633Z,95.20
2018-02-20T10:56:52.966Z,92.70
2018-02-20T10:59:19.484Z,97.00
2018-02-20T11:01:46.136Z,94.67
2018-02-20T11:04:12.471Z,133.10
2018-02-20T11:06:39.609Z,91.07
2018-02-20T11:09:06.249Z,102.07
2018-02-20T11:11:32.661Z,106.33
2018-02-20T11:13:58.994Z,94.83
2018-02-20T11:16:25.252Z,91.07
2018-02-20T11:18:51.679Z,97.50
2018-02-20T11:21:18.713Z,100.23
2018-02-20T11:23:45.141Z,86.77
2018-02-20T11:26:11.478Z,88.37
2018-02-20T11:28:37.849Z,89.97
2018-02-20T11:31:04.249Z,80.03
2018-02-20T11:33:30.438Z,83.40
2018-02-20T11:35:57.748Z,88.60
2018-02-20T11:38:24.998Z,90.93
2018-02-20T11:40:52.314Z,104.80
2018-02-20T11:43:18.643Z,87.27
2018-02-20T11:45:44.945Z,82.13
2018-02-20T11:48:11.153Z,107.90
2018-02-20T11:50:37.532Z,110.70
2018-02-20T11:53:03.960Z,103.90
2018-02-20T11:55:30.441Z,127.27
2018-02-20T11:57:56.925Z,125.13
2018-02-20T12:00:23.166Z,108.20
2018-02-20T12:02:49.408Z,105.90
2018-02-20T12:05:16.420Z,110.20
2018-02-20T12:07:42.816Z,102.93
2018-02-20T12:10:09.829Z,110.87
2018-02-20T12:12:36.205Z,111.20
2018-02-20T12:15:02.862Z,105.67
2018-02-20T12:17:29.212Z,112.37
2018-02-20T12:19:55.728Z,99.47
2018-02-20T12:22:22.011Z,111.30
2018-02-20T12:24:48.313Z,106.87
2018-02-20T12:27:15.561Z,97.03
2018-02-20T12:29:42.625Z,95.40
2018-02-20T12:32:10.008Z,89.73
2018-02-20T12:34:43.310Z,110.67
2018-02-20T12:37:10.782Z,102.77
2018-02-20T12:39:37.071Z,102.17
2018-02-20T12:42:03.287Z,105.67
2018-02-20T12:44:29.623Z,95.07
2018-02-20T12:47:10.989Z,110.17
2018-02-20T12:49:37.371Z,100.23
2018-02-20T12:52:03.825Z,93.73
2018-02-20T12:54:30.162Z,88.30
2018-02-20T12:56:57.234Z,106.43
2018-02-20T12:59:23.581Z,100.00
2018-02-20T13:01:49.897Z,88.37
2018-02-20T13:04:16.332Z,98.37
2018-02-20T13:06:42.657Z,99.33
2018-02-20T13:09:08.884Z,99.97
2018-02-20T13:11:35.246Z,109.97
2018-02-20T13:14:01.698Z,98.77
2018-02-20T13:16:27.970Z,102.67
2018-02-20T13:18:54.384Z,120.97
2018-02-20T13:21:20.851Z,104.80
2018-02-20T13:23:47.185Z,113.53
2018-02-20T13:26:13.538Z,113.80
2018-02-20T13:28:46.790Z,126.93
2018-02-20T13:31:13.180Z,120.43
2018-02-20T13:33:40.318Z,131.67
2018-02-20T13:36:06.521Z,126.47
2018-02-20T13:38:33.044Z,153.30
2018-02-20T13:40:59.458Z,152.47
2018-02-20T13:43:26.347Z,162.90
2018-02-20T13:45:52.741Z,157.43
2018-02-20T13:48:19.110Z,157.50
2018-02-20T13:50:46.932Z,148.87
2018-02-20T13:53:13.223Z,166.50
2018-02-20T13:55:40.448Z,177.40
2018-02-20T13:58:06.715Z,152.40
2018-02-20T14:00:33.938Z,162.53
2018-02-20T14:03:01.047Z,143.50
2018-02-20T14:05:27.515Z,158.50
2018-02-20T14:07:54.049Z,192.20
2018-02-20T14:10:21.170Z,198.13
2018-02-20T14:12:47.398Z,214.63
2018-02-20T14:15:13.786Z,176.53
2018-02-20T14:17:40.026Z,158.97
2018-02-20T14:20:06.328Z,152.40
2018-02-20T14:22:33.453Z,152.27
2018-02-20T14:24:59.723Z,149.77
2018-02-20T14:27:26.408Z,148.73
2018-02-20T14:29:52.767Z,149.10
2018-02-20T14:32:19.896Z,143.97
2018-02-20T14:34:47.223Z,141.47
2018-02-20T14:37:13.526Z,145.50
2018-02-20T14:39:40.002Z,165.47
2018-02-20T14:42:07.809Z,163.70
2018-02-20T14:44:34.040Z,147.57
2018-02-20T14:47:00.539Z,142.83
2018-02-20T14:49:26.857Z,142.00
2018-02-20T14:51:53.287Z,144.83
2018-02-20T14:54:19.677Z,149.20
2018-02-20T14:56:46.027Z,147.47
2018-02-20T14:59:12.582Z,146.73
2018-02-20T15:01:39.866Z,156.43
2018-02-20T15:04:07.177Z,143.83
2018-02-20T15:06:33.590Z,181.20
2018-02-20T15:09:00.045Z,171.60
2018-02-20T15:11:41.296Z,163.93
2018-02-20T15:14:07.760Z,166.17
2018-02-20T15:16:34.186Z,149.30
2018-02-20T15:19:00.935Z,160.70
2018-02-20T15:21:27.433Z,149.77
2018-02-20T15:23:54.090Z,180.33
2018-02-20T15:26:20.523Z,168.47
2018-02-20T15:28:46.853Z,161.57
2018-02-20T15:31:13.327Z,149.60
2018-02-20T15:33:39.578Z,162.90
2018-02-20T15:36:06.053Z,142.60
2018-02-20T15:38:34.013Z,130.27
2018-02-20T15:41:01.185Z,141.17
2018-02-20T15:43:27.810Z,130.80
2018-02-20T15:45:55.619Z,145.07
2018-02-20T15:48:22.042Z,143.87
2018-02-20T15:50:48.284Z,146.00
2018-02-20T15:53:14.615Z,158.37
2018-02-20T15:55:40.948Z,155.03
2018-02-20T15:58:07.245Z,151.23
2018-02-20T16:00:34.732Z,145.63
2018-02-20T16:03:01.203Z,141.13
2018-02-20T16:05:28.597Z,149.20
2018-02-20T16:07:55.138Z,134.00
2018-02-20T16:10:21.512Z,167.63
2018-02-20T16:12:48.070Z,140.53
2018-02-20T16:15:15.306Z,141.23
2018-02-20T16:17:42.273Z,144.03
2018-02-20T16:20:11.126Z,236.43
2018-02-20T16:22:37.481Z,182.47
2018-02-20T16:25:03.750Z,139.30
2018-02-20T16:27:30.166Z,135.20
2018-02-20T16:29:56.469Z,135.73
2018-02-20T16:32:23.426Z,117.40
2018-02-20T16:34:50.768Z,154.73
2018-02-20T16:37:17.999Z,150.30
2018-02-20T16:39:44.341Z,127.27
2018-02-20T16:42:10.903Z,147.00
2018-02-20T16:44:37.195Z,118.87
2018-02-20T16:47:03.578Z,137.27
2018-02-20T16:49:30.161Z,130.97
2018-02-20T16:51:57.500Z,138.53
2018-02-20T16:54:23.932Z,130.50
2018-02-20T16:56:50.437Z,142.67
2018-02-20T16:59:16.754Z,118.10
2018-02-20T17:01:43.316Z,128.30
2018-02-20T17:04:09.614Z,150.10
2018-02-20T17:06:35.952Z,157.20
2018-02-20T17:09:02.315Z,126.97
2018-02-20T17:11:28.599Z,204.00
2018-02-20T17:13:54.915Z,149.67
2018-02-20T17:16:21.904Z,176.17
2018-02-20T17:18:48.177Z,146.83
2018-02-20T17:21:30.227Z,180.63
2018-02-20T17:23:56.553Z,114.03
2018-02-20T17:26:22.947Z,122.80
2018-02-20T17:28:49.404Z,115.30
2018-02-20T17:31:15.886Z,113.83
2018-02-20T17:33:42.945Z,111.83
2018-02-20T17:36:09.979Z,125.47
2018-02-20T17:38:37.115Z,145.70
2018-02-20T17:41:03.414Z,122.47
2018-02-20T17:43:29.990Z,119.57
2018-02-20T17:45:58.321Z,142.80
2018-02-20T17:48:24.657Z,139.20
2018-02-20T17:50:50.988Z,121.27
2018-02-20T17:53:17.434Z,139.77
2018-02-20T17:55:43.767Z,136.47
2018-02-20T17:58:12.136Z,126.07
2018-02-20T18:00:38.682Z,142.70
2018-02-20T18:03:05.925Z,125.00
2018-02-20T18:05:32.353Z,135.30
2018-02-20T18:07:58.700Z,126.93
2018-02-20T18:10:25.079Z,116.27
2018-02-20T18:12:51.486Z,138.07
2018-02-20T18:15:17.944Z,139.93
2018-02-20T18:17:44.515Z,131.43
2018-02-20T18:20:12.443Z,119.37
2018-02-20T18:22:38.861Z,116.27
2018-02-20T18:25:05.296Z,109.87
2018-02-20T18:27:31.856Z,135.43
2018-02-20T18:29:58.714Z,112.90
2018-02-20T18:32:25.987Z,118.93
2018-02-20T18:34:52.615Z,110.27
2018-02-20T18:37:19.320Z,116.20
2018-02-20T18:39:45.920Z,121.20
2018-02-20T18:42:14.936Z,106.80
2018-02-20T18:44:41.221Z,113.67
2018-02-20T18:47:09.506Z,120.33
2018-02-20T18:49:36.926Z,111.33
2018-02-20T18:52:03.356Z,109.90
2018-02-20T18:54:29.611Z,107.57
2018-02-20T18:56:56.983Z,117.47
2018-02-20T18:59:23.274Z,103.17
2018-02-20T19:01:49.546Z,111.30
2018-02-20T19:04:15.847Z,116.20
2018-02-20T19:06:43.013Z,121.37
2018-02-20T19:09:09.402Z,104.87
2018-02-20T19:11:35.734Z,114.97
2018-02-20T19:14:02.835Z,107.73
2018-02-20T19:16:29.250Z,101.93
2018-02-20T19:18:55.760Z,116.07
2018-02-20T19:21:22.848Z,106.07
2018-02-20T19:23:49.592Z,104.40
2018-02-20T19:26:16.124Z,104.93
2018-02-20T19:28:42.590Z,107.60
2018-02-20T19:31:08.944Z,109.27
2018-02-20T19:33:35.352Z,102.30
2018-02-20T19:36:01.706Z,101.43
2018-02-20T19:38:28.116Z,94.43
2018-02-20T19:40:55.262Z,100.27
2018-02-20T19:43:22.388Z,107.17
2018-02-20T19:45:48.705Z,97.53
2018-02-20T19:48:16.192Z,102.30
2018-02-20T19:50:42.545Z,102.77
2018-02-20T19:53:08.771Z,102.97
2018-02-20T19:55:36.263Z,92.27
2018-02-20T19:58:02.580Z,99.10
2018-02-20T20:00:28.947Z,99.07
2018-02-20T20:02:57.867Z,116.73
2018-02-20T20:05:24.900Z,104.70
2018-02-20T20:07:51.167Z,100.97
2018-02-20T20:10:18.277Z,106.87
2018-02-20T20:12:44.681Z,108.13
2018-02-20T20:15:10.997Z,99.97
2018-02-20T20:17:38.227Z,98.27
2018-02-20T20:20:04.716Z,103.47
2018-02-20T20:22:31.251Z,103.80
2018-02-20T20:24:57.581Z,97.30
2018-02-20T20:27:24.042Z,94.43
2018-02-20T20:29:52.080Z,97.20
2018-02-20T20:32:19.227Z,87.93
2018-02-20T20:34:45.434Z,102.00
2018-02-20T20:37:11.789Z,104.37
2018-02-20T20:39:38.191Z,92.47
2018-02-20T20:42:04.869Z,103.17
2018-02-20T20:44:31.394Z,94.10
2018-02-20T20:46:58.607Z,97.90
2018-02-20T20:49:25.082Z,99.77
2018-02-20T20:51:52.220Z,99.30
2018-02-20T20:54:19.387Z,103.60
2018-02-20T20:56:45.790Z,102.53
2018-02-20T20:59:12.220Z,98.20
2018-02-20T21:01:38.559Z,109.93
2018-02-20T21:04:06.475Z,98.90
2018-02-20T21:06:33.827Z,100.90
2018-02-20T21:09:00.551Z,125.33
2018-02-20T21:11:27.609Z,107.40
2018-02-20T21:13:54.326Z,103.47
2018-02-20T21:16:21.469Z,101.07
2018-02-20T21:18:48.623Z,94.60
2018-02-20T21:21:16.031Z,102.67
2018-02-20T21:23:42.686Z,102.97
2018-02-20T21:26:08.979Z,98.40
2018-02-20T21:28:35.271Z,107.33
2018-02-20T21:31:02.402Z,105.60
2018-02-20T21:33:28.751Z,102.13
2018-02-20T21:35:55.736Z,95.67
2018-02-20T21:38:22.307Z,106.37
2018-02-20T21:40:50.379Z,98.70
2018-02-20T21:43:16.901Z,103.43
2018-02-20T21:45:43.330Z,102.20
2018-02-20T21:48:09.735Z,107.47
2018-02-20T21:50:36.207Z,102.87
2018-02-20T21:53:03.769Z,114.50
2018-02-20T21:55:30.286Z,108.87
2018-02-20T21:57:58.373Z,100.30
2018-02-20T22:00:25.709Z,90.40
2018-02-20T22:02:52.035Z,97.97
2018-02-20T22:05:18.263Z,100.60
2018-02-20T22:07:44.695Z,119.17
2018-02-20T22:10:11.124Z,107.00
2018-02-20T22:12:37.635Z,111.70
2018-02-20T22:15:03.931Z,100.87
2018-02-20T22:17:30.266Z,102.83
2018-02-20T22:19:56.667Z,99.23
2018-02-20T22:22:23.917Z,93.77
2018-02-20T22:24:50.905Z,102.67
2018-02-20T22:27:17.914Z,105.67
2018-02-20T22:29:44.350Z,103.17
2018-02-20T22:32:11.490Z,113.23
2018-02-20T22:34:38.576Z,106.90
2018-02-20T22:37:04.907Z,98.50
2018-02-20T22:39:31.262Z,120.97
2018-02-20T22:41:57.641Z,115.67
2018-02-20T22:44:24.688Z,151.63
2018-02-20T22:46:51.067Z,125.20
2018-02-20T22:49:17.419Z,116.00
2018-02-20T22:51:43.997Z,113.67
2018-02-20T22:54:10.451Z,143.63
2018-02-20T22:56:36.795Z,138.00
2018-02-20T22:59:03.139Z,120.70
2018-02-20T23:01:29.518Z,109.47
2018-02-20T23:03:56.184Z,127.50
2018-02-20T23:06:22.530Z,134.53
2018-02-20T23:08:49.778Z,126.60
2018-02-20T23:11:16.310Z,122.70
2018-02-20T23:13:43.053Z,119.63
2018-02-20T23:16:09.384Z,115.10
2018-02-20T23:18:35.720Z,117.90
2018-02-20T23:21:02.976Z,131.80
2018-02-20T23:23:30.019Z,129.53
2018-02-20T23:26:00.444Z,128.60
2018-02-20T23:28:26.863Z,126.27
2018-02-20T23:30:53.994Z,131.93
2018-02-20T23:33:20.260Z,108.03
2018-02-20T23:35:47.322Z,105.97
2018-02-20T23:38:14.405Z,103.20
2018-02-20T23:40:40.634Z,105.33
2018-02-20T23:43:06.952Z,101.27
2018-02-20T23:45:33.222Z,112.07
2018-02-20T23:48:01.037Z,109.50
2018-02-20T23:50:27.386Z,95.93
2018-02-20T23:52:53.651Z,90.03
2018-02-20T23:55:20.898Z,101.23
2018-02-20T23:57:48.595Z,96.00
